createdAt,value
2023-04-27T00:04:16.637Z,100509.38
2023-04-27T00:09:38.712Z,100523.88
2023-04-27T00:15:00.558Z,100511.16
2023-04-27T00:20:22.367Z,100510.31
2023-04-27T00:25:44.304Z,100523.09
2023-04-27T00:31:06.162Z,100534.19
2023-04-27T00:36:28.002Z,100543.53
2023-04-27T00:41:49.886Z,100539.28
2023-04-27T00:47:11.815Z,100537.59
2023-04-27T00:52:33.952Z,100541.00
2023-04-27T00:57:55.804Z,100541.00
2023-04-27T01:03:18.072Z,100542.72
2023-04-27T01:08:40.079Z,100541.03
2023-04-27T01:14:06.586Z,100547.00
2023-04-27T01:19:28.355Z,100557.16
2023-04-27T01:24:50.187Z,100562.28
2023-04-27T01:30:12.142Z,100559.72
2023-04-27T01:35:33.993Z,100560.59
2023-04-27T01:40:55.820Z,100550.38
2023-04-27T01:46:17.704Z,100556.31
2023-04-27T01:51:39.589Z,100564.84
2023-04-27T01:57:01.590Z,100569.09
2023-04-27T02:02:23.482Z,100577.59
2023-04-27T02:07:45.435Z,100566.53
2023-04-27T02:13:07.268Z,100575.03
2023-04-27T02:18:29.167Z,100569.94
2023-04-27T02:23:51.055Z,100575.88
2023-04-27T02:29:13.070Z,100570.78
2023-04-27T02:34:35.652Z,100570.78
2023-04-27T02:39:57.620Z,100569.03
2023-04-27T02:45:19.437Z,100568.19
2023-04-27T02:50:42.505Z,100569.03
2023-04-27T02:56:04.587Z,100577.53
2023-04-27T03:01:26.423Z,100579.28
2023-04-27T03:06:48.334Z,100588.59
2023-04-27T03:12:10.288Z,100585.19
2023-04-27T03:17:32.218Z,100593.75
2023-04-27T03:22:54.010Z,100602.28
2023-04-27T03:28:15.817Z,100592.97
2023-04-27T03:33:38.561Z,100587.84
2023-04-27T03:39:00.453Z,100592.75
2023-04-27T03:44:22.236Z,100593.25
2023-04-27T03:49:44.030Z,100588.38
2023-04-27T03:55:06.552Z,100587.69
2023-04-27T04:00:28.362Z,100595.81
2023-04-27T04:05:50.207Z,100591.91
2023-04-27T04:11:12.055Z,100605.41
2023-04-27T04:16:34.252Z,100604.63
2023-04-27T04:21:56.083Z,100621.34
2023-04-27T04:27:18.078Z,100601.50
2023-04-27T04:32:39.910Z,100602.59
2023-04-27T04:38:01.744Z,100603.09
2023-04-27T04:43:23.579Z,100613.13
2023-04-27T04:48:45.454Z,100615.59
2023-04-27T04:54:07.295Z,100617.75
2023-04-27T04:59:32.890Z,100622.47
2023-04-27T05:04:54.810Z,100611.56
2023-04-27T05:10:16.701Z,100607.66
2023-04-27T05:15:38.552Z,100613.59
2023-04-27T05:21:00.603Z,100611.38
2023-04-27T05:26:22.468Z,100602.13
2023-04-27T05:31:44.378Z,100618.56
2023-04-27T05:37:06.256Z,100621.03
2023-04-27T05:42:28.096Z,100622.66
2023-04-27T05:47:50.122Z,100630.84
2023-04-27T05:53:12.113Z,100628.59
2023-04-27T05:58:33.959Z,100638.94
2023-04-27T06:03:55.925Z,100628.22
2023-04-27T06:09:17.802Z,100635.69
2023-04-27T06:14:39.658Z,100644.09
2023-04-27T06:20:01.463Z,100643.53
2023-04-27T06:25:26.673Z,100635.22
2023-04-27T06:30:49.033Z,100642.72
2023-04-27T06:36:10.952Z,100642.00
2023-04-27T06:41:32.883Z,100645.59
2023-04-27T06:46:54.718Z,100645.09
2023-04-27T06:52:16.570Z,100638.66
2023-04-27T06:57:38.421Z,100642.19
2023-04-27T07:03:00.361Z,100656.44
2023-04-27T07:08:22.232Z,100650.59
2023-04-27T07:13:44.074Z,100656.97
2023-04-27T07:19:05.870Z,100663.13
2023-04-27T07:24:27.670Z,100659.44
2023-04-27T07:29:49.476Z,100652.88
2023-04-27T07:35:11.320Z,100661.28
2023-04-27T07:40:33.145Z,100643.06
2023-04-27T07:45:55.047Z,100656.66
2023-04-27T07:51:16.877Z,100660.84
2023-04-27T07:56:42.087Z,100670.81
2023-04-27T08:02:18.399Z,100667.31
2023-04-27T08:07:44.460Z,100674.78
2023-04-27T08:13:07.004Z,100685.13
2023-04-27T08:18:28.848Z,100673.28
2023-04-27T08:23:50.683Z,100667.19
2023-04-27T08:29:24.116Z,100664.72
2023-04-27T08:34:48.589Z,100658.91
2023-04-27T08:40:10.891Z,100656.63
2023-04-27T08:45:32.952Z,100675.75
2023-04-27T08:50:56.602Z,100671.94
2023-04-27T08:56:19.740Z,100681.44
2023-04-27T09:01:49.004Z,100686.72
2023-04-27T09:07:18.393Z,100690.97
2023-04-27T09:12:40.211Z,100700.66
2023-04-27T09:18:02.189Z,100686.31
2023-04-27T09:23:34.545Z,100694.19
2023-04-27T09:28:56.429Z,100699.38
2023-04-27T09:34:18.310Z,100697.56
2023-04-27T09:39:41.654Z,100700.09
2023-04-27T09:45:04.469Z,100691.69
2023-04-27T09:50:26.360Z,100706.22
2023-04-27T09:56:03.163Z,100701.91
2023-04-27T10:01:39.559Z,100698.34
2023-04-27T10:07:11.275Z,100687.22
2023-04-27T10:12:33.994Z,100696.88
2023-04-27T10:17:56.066Z,100706.91
2023-04-27T10:23:27.788Z,100695.94
2023-04-27T10:29:06.662Z,100700.94
2023-04-27T10:34:28.578Z,100695.63
2023-04-27T10:39:51.692Z,100695.47
2023-04-27T10:45:29.238Z,100697.44
2023-04-27T10:50:53.154Z,100692.25
2023-04-27T10:56:15.033Z,100697.47
2023-04-27T11:01:37.462Z,100704.66
2023-04-27T11:06:59.346Z,100708.56
2023-04-27T11:12:21.619Z,100716.28
2023-04-27T11:17:43.489Z,100717.50
2023-04-27T11:23:05.400Z,100721.88
2023-04-27T11:28:27.321Z,100722.47
2023-04-27T11:33:49.573Z,100726.16
2023-04-27T11:39:17.803Z,100715.78
2023-04-27T11:44:39.773Z,100714.59
2023-04-27T11:50:04.832Z,100719.63
2023-04-27T11:55:26.742Z,100707.59
2023-04-27T12:00:29.372Z,100709.28
2023-04-27T12:05:50.981Z,100710.81
2023-04-27T12:11:12.960Z,100691.72
2023-04-27T12:16:34.814Z,100701.31
2023-04-27T12:21:57.881Z,100690.03
2023-04-27T12:27:19.691Z,100676.31
2023-04-27T12:32:42.003Z,100705.25
2023-04-27T12:38:03.807Z,100721.91
2023-04-27T12:43:25.624Z,100721.63
2023-04-27T12:48:47.488Z,100703.31
2023-04-27T12:54:10.434Z,100709.38
2023-04-27T12:59:36.085Z,100728.31
2023-04-27T13:04:57.899Z,100709.94
2023-04-27T13:10:19.722Z,100716.41
2023-04-27T13:15:41.588Z,100728.13
2023-04-27T13:21:04.295Z,100727.47
2023-04-27T13:26:26.123Z,100723.13
2023-04-27T13:31:48.008Z,100715.19
2023-04-27T13:37:09.869Z,100726.66
2023-04-27T13:42:31.696Z,100741.97
2023-04-27T13:47:53.547Z,100732.56
2023-04-27T13:53:15.427Z,100750.06
2023-04-27T13:58:37.317Z,100738.44
2023-04-27T14:03:59.296Z,100757.31
2023-04-27T14:09:21.248Z,100753.75
2023-04-27T14:14:43.065Z,100736.44
2023-04-27T14:20:05.512Z,100738.63
2023-04-27T14:25:27.859Z,100742.25
2023-04-27T14:30:49.721Z,100746.88
2023-04-27T14:36:11.548Z,100745.50
2023-04-27T14:41:33.387Z,100746.59
2023-04-27T14:46:55.239Z,100760.63
2023-04-27T14:52:17.101Z,100763.19
2023-04-27T14:57:38.934Z,100761.69
2023-04-27T15:03:00.839Z,100764.47
2023-04-27T15:08:22.707Z,100769.63
2023-04-27T15:13:44.554Z,100773.28
2023-04-27T15:19:06.449Z,100770.63
2023-04-27T15:24:28.287Z,100753.34
2023-04-27T15:29:50.148Z,100749.00
2023-04-27T15:35:11.952Z,100771.09
2023-04-27T15:40:34.403Z,100775.94
2023-04-27T15:45:56.186Z,100772.25
2023-04-27T15:51:18.015Z,100786.41
2023-04-27T15:56:39.840Z,100794.13
2023-04-27T16:02:01.925Z,100803.09
2023-04-27T16:07:23.964Z,100799.50
2023-04-27T16:12:45.869Z,100803.34
2023-04-27T16:18:07.829Z,100807.78
2023-04-27T16:23:29.828Z,100804.41
2023-04-27T16:28:51.656Z,100811.09
2023-04-27T16:34:13.498Z,100814.28
2023-04-27T16:39:35.327Z,100811.94
2023-04-27T16:44:57.304Z,100819.50
2023-04-27T16:50:19.197Z,100815.78
2023-04-27T16:55:41.215Z,100820.91
2023-04-27T17:01:03.102Z,100827.75
2023-04-27T17:06:25.695Z,100834.72
2023-04-27T17:11:47.584Z,100832.31
2023-04-27T17:17:10.511Z,100842.81
2023-04-27T17:22:32.397Z,100827.72
2023-04-27T17:27:54.247Z,100850.19
2023-04-27T17:33:16.152Z,100845.50
2023-04-27T17:38:38.000Z,100844.81
2023-04-27T17:43:59.859Z,100841.44
2023-04-27T17:49:21.715Z,100838.91
2023-04-27T17:54:43.555Z,100835.84
2023-04-27T18:00:06.093Z,100847.84
2023-04-27T18:05:28.026Z,100851.63
2023-04-27T18:10:49.809Z,100850.22
2023-04-27T18:16:11.608Z,100873.56
2023-04-27T18:21:33.434Z,100872.00
2023-04-27T18:26:55.255Z,100882.38
2023-04-27T18:32:17.049Z,100889.19
2023-04-27T18:37:38.874Z,100885.66
2023-04-27T18:43:00.740Z,100887.28
2023-04-27T18:48:23.579Z,100882.13
2023-04-27T18:53:45.392Z,100889.06
2023-04-27T18:59:07.215Z,100879.81
2023-04-27T19:04:29.195Z,100895.34
2023-04-27T19:09:53.264Z,100889.34
2023-04-27T19:15:15.335Z,100886.75
2023-04-27T19:20:37.303Z,100886.88
2023-04-27T19:26:09.627Z,100890.38
2023-04-27T19:31:34.640Z,100889.59
2023-04-27T19:36:56.496Z,100891.34
2023-04-27T19:42:18.307Z,100881.31
2023-04-27T19:47:40.198Z,100902.72
2023-04-27T19:53:02.451Z,100898.56
2023-04-27T19:58:24.323Z,100904.63
2023-04-27T20:03:46.288Z,100896.16
2023-04-27T20:09:08.324Z,100910.81
2023-04-27T20:14:30.593Z,100893.00
2023-04-27T20:19:52.557Z,100906.72
2023-04-27T20:25:14.527Z,100904.28
2023-04-27T20:30:36.620Z,100921.38
2023-04-27T20:36:03.685Z,100907.78
2023-04-27T20:41:28.454Z,100928.34
2023-04-27T20:46:50.246Z,100927.56
2023-04-27T20:52:12.108Z,100925.88
2023-04-27T20:57:34.066Z,100933.56
2023-04-27T21:02:55.954Z,100934.50
2023-04-27T21:08:17.882Z,100921.72
2023-04-27T21:13:39.753Z,100937.13
2023-04-27T21:19:01.567Z,100943.94
2023-04-27T21:24:23.641Z,100933.69
2023-04-27T21:29:45.829Z,100930.25
2023-04-27T21:35:08.255Z,100935.41
2023-04-27T21:40:30.097Z,100929.41
2023-04-27T21:45:52.036Z,100950.72
2023-04-27T21:51:13.899Z,100955.06
2023-04-27T21:56:35.722Z,100957.63
2023-04-27T22:01:57.607Z,100964.63
2023-04-27T22:07:19.420Z,100968.88
2023-04-27T22:12:41.321Z,100953.50
2023-04-27T22:18:03.212Z,100974.00
2023-04-27T22:23:25.069Z,100969.72
2023-04-27T22:28:46.864Z,100970.56
2023-04-27T22:34:09.022Z,100956.94
2023-04-27T22:39:31.175Z,100968.06
2023-04-27T22:44:53.022Z,100971.47
2023-04-27T22:50:15.452Z,100968.09
2023-04-27T22:55:37.253Z,100979.16
2023-04-27T23:00:59.077Z,100979.16
2023-04-27T23:06:20.867Z,100972.31
2023-04-27T23:11:42.645Z,100977.44
2023-04-27T23:17:04.830Z,100980.84
2023-04-27T23:22:27.152Z,100973.16
2023-04-27T23:27:49.954Z,100975.69
2023-04-27T23:33:13.567Z,100962.06
2023-04-27T23:38:35.378Z,100982.56
2023-04-27T23:43:57.165Z,100980.84
2023-04-27T23:49:18.950Z,100986.84
2023-04-27T23:54:40.794Z,100989.44
